Time;durP1;ratioP1;P1;durP2;ratioP2;P2;SDS_P1;SDS_P2;PMS_P1;PMS_P2;Temp;Humidity;BMP_temperature;BMP_pressure;BME280_temperature;BME280_humidity;BME280_pressure;Samples;Min_cycle;Max_cycle;Signal;HPM_P1;HPM_P2
2023/08/10 00:00:09;;;;;;;5.00;3.80;;;15.20;99.90;;;;;;5009665;28;20461;-69
2023/08/10 00:02:35;;;;;;;5.67;3.67;;;15.20;99.90;;;;;;5012734;28;20193;-69
2023/08/10 00:05:00;;;;;;;4.20;3.80;;;15.30;99.90;;;;;;5018756;28;20438;-69
2023/08/10 00:07:26;;;;;;;4.50;4.10;;;15.30;99.90;;;;;;5021792;28;20620;-69
2023/08/10 00:09:51;;;;;;;7.27;3.87;;;15.40;99.90;;;;;;5014675;28;20179;-69
2023/08/10 00:12:17;;;;;;;4.70;4.00;;;15.50;99.90;;;;;;5012588;28;20194;-69
2023/08/10 00:14:42;;;;;;;3.90;3.57;;;15.50;99.90;;;;;;5016611;28;20570;-69
2023/08/10 00:17:08;;;;;;;5.23;4.47;;;15.50;99.90;;;;;;5012517;28;20191;-69
2023/08/10 00:19:33;;;;;;;5.07;4.43;;;15.50;99.90;;;;;;5012733;28;20580;-69
2023/08/10 00:21:59;;;;;;;3.97;3.67;;;15.40;99.90;;;;;;5012018;28;20250;-69
2023/08/10 00:24:24;;;;;;;3.90;3.60;;;15.40;99.90;;;;;;5013586;28;20205;-70
2023/08/10 00:26:50;;;;;;;5.37;4.63;;;15.40;99.90;;;;;;5013503;28;20256;-69
2023/08/10 00:29:16;;;;;;;4.10;3.63;;;15.30;99.90;;;;;;5013394;28;20310;-69
2023/08/10 00:31:41;;;;;;;4.17;3.87;;;15.20;99.90;;;;;;5013217;28;20274;-69
2023/08/10 00:34:07;;;;;;;4.70;4.20;;;15.20;99.90;;;;;;5011817;28;20439;-69
2023/08/10 00:36:32;;;;;;;4.80;4.40;;;15.20;99.90;;;;;;5014292;28;20563;-69
2023/08/10 00:38:58;;;;;;;4.70;3.93;;;15.20;99.90;;;;;;5011991;28;20594;-69
2023/08/10 00:41:23;;;;;;;4.33;3.93;;;15.10;99.90;;;;;;5013292;28;20183;-69
2023/08/10 00:43:49;;;;;;;4.70;4.20;;;15.10;99.90;;;;;;5011984;28;20660;-70
2023/08/10 00:46:15;;;;;;;4.17;3.87;;;15.00;99.90;;;;;;5012617;28;20182;-69
2023/08/10 00:48:40;;;;;;;4.40;4.00;;;14.90;99.90;;;;;;5012766;28;20202;-69
2023/08/10 00:51:07;;;;;;;5.00;4.27;;;14.80;99.90;;;;;;5013630;28;20214;-69
2023/08/10 00:53:32;;;;;;;5.03;4.30;;;14.80;99.90;;;;;;5017084;28;20186;-69
2023/08/10 00:56:01;;;;;;;4.70;4.30;;;14.70;99.90;;;;;;5025150;28;20429;-69
2023/08/10 00:58:27;;;;;;;4.30;4.00;;;14.70;99.90;;;;;;5012077;28;20739;-69
2023/08/10 01:00:52;;;;;;;4.70;4.40;;;14.60;99.90;;;;;;5020950;28;20444;-69
2023/08/10 01:03:19;;;;;;;4.60;4.30;;;14.60;99.90;;;;;;5016561;28;20430;-69
2023/08/10 01:06:01;;;;;;;7.80;4.27;;;14.50;99.90;;;;;;5012879;28;20201;-69
2023/08/10 01:08:55;;;;;;;5.77;4.73;;;14.40;99.90;;;;;;5008305;28;21299;-69
2023/08/10 01:11:44;;;;;;;5.00;4.60;;;14.40;99.90;;;;;;5008128;28;20444;-69
2023/08/10 01:14:18;;;;;;;4.60;4.20;;;14.40;99.90;;;;;;5007459;28;20517;-69
2023/08/10 01:16:44;;;;;;;4.17;3.77;;;14.40;99.90;;;;;;5011337;28;20451;-69
2023/08/10 01:19:23;;;;;;;5.20;4.23;;;14.40;99.90;;;;;;5009286;28;20482;-69
2023/08/10 01:22:37;;;;;;;5.70;4.30;;;14.30;99.90;;;;;;5010781;28;20599;-69
2023/08/10 01:25:05;;;;;;;5.50;5.03;;;14.30;99.90;;;;;;4995305;28;20492;-69
2023/08/10 01:27:32;;;;;;;4.70;4.30;;;14.20;99.90;;;;;;5009843;28;20472;-69
2023/08/10 01:30:00;;;;;;;4.70;4.30;;;14.20;99.90;;;;;;5009552;28;20442;-69
2023/08/10 01:32:28;;;;;;;4.60;4.30;;;14.10;99.90;;;;;;5010718;28;20935;-69
2023/08/10 01:34:54;;;;;;;4.77;4.37;;;14.10;99.90;;;;;;5011288;28;20478;-69
2023/08/10 01:37:20;;;;;;;5.83;4.03;;;14.10;99.90;;;;;;5012825;28;20988;-69
2023/08/10 01:39:45;;;;;;;8.53;5.20;;;14.10;99.90;;;;;;5008706;28;20572;-69
2023/08/10 01:42:11;;;;;;;5.13;4.50;;;14.00;99.90;;;;;;5010833;28;20182;-69
2023/08/10 01:44:37;;;;;;;6.90;4.90;;;14.00;99.90;;;;;;5008092;28;20179;-69
2023/08/10 01:47:07;;;;;;;4.57;4.27;;;14.00;99.90;;;;;;5011534;28;20230;-69
2023/08/10 01:49:34;;;;;;;5.60;5.20;;;13.90;99.90;;;;;;5010374;28;20203;-69
2023/08/10 01:52:07;;;;;;;4.90;4.53;;;13.80;99.90;;;;;;5010472;28;20437;-69
2023/08/10 01:54:36;;;;;;;5.40;4.90;;;13.80;99.90;;;;;;5011486;28;20974;-69
2023/08/10 01:57:02;;;;;;;6.03;4.10;;;13.80;99.90;;;;;;5011731;28;20457;-69
2023/08/10 01:59:28;;;;;;;5.70;5.20;;;13.80;99.90;;;;;;5010117;28;20462;-69
2023/08/10 02:01:54;;;;;;;4.40;4.10;;;13.80;99.90;;;;;;5010420;28;20965;-69
2023/08/10 02:04:20;;;;;;;4.13;3.83;;;13.90;99.90;;;;;;5011627;28;20183;-69
2023/08/10 02:06:46;;;;;;;4.93;4.53;;;13.80;99.90;;;;;;5010972;28;20449;-69
2023/08/10 02:09:12;;;;;;;6.23;5.73;;;13.80;99.90;;;;;;5010982;28;20660;-69
2023/08/10 02:11:37;;;;;;;4.57;4.17;;;13.80;99.90;;;;;;5010953;28;20183;-69
2023/08/10 02:14:03;;;;;;;4.87;4.47;;;13.70;99.90;;;;;;5011241;28;20445;-69
2023/08/10 02:16:28;;;;;;;5.20;4.80;;;13.70;99.90;;;;;;5011283;28;20277;-69
2023/08/10 02:18:54;;;;;;;5.23;4.77;;;13.80;99.90;;;;;;5012765;28;20288;-69
2023/08/10 02:21:23;;;;;;;5.33;4.83;;;13.80;99.90;;;;;;5011286;28;20185;-69
2023/08/10 02:23:50;;;;;;;6.10;5.50;;;13.80;99.90;;;;;;5010745;28;20178;-69
2023/08/10 02:26:16;;;;;;;7.97;6.37;;;13.80;99.90;;;;;;5011810;28;20774;-69
2023/08/10 02:28:41;;;;;;;5.70;5.20;;;13.70;99.90;;;;;;5010533;28;20469;-69
2023/08/10 02:31:07;;;;;;;6.33;5.60;;;13.60;99.90;;;;;;5011734;28;20267;-69
2023/08/10 02:33:33;;;;;;;4.87;4.50;;;13.60;99.90;;;;;;5011055;28;20175;-69
2023/08/10 02:35:58;;;;;;;4.27;3.97;;;13.60;99.90;;;;;;5011545;28;20205;-69
2023/08/10 02:38:24;;;;;;;6.13;5.63;;;13.60;99.90;;;;;;5009379;28;20660;-69
2023/08/10 02:40:49;;;;;;;5.33;4.93;;;13.60;99.90;;;;;;5010841;28;20709;-69
2023/08/10 02:43:15;;;;;;;5.57;4.97;;;13.60;99.90;;;;;;5009299;28;20185;-69
2023/08/10 02:45:40;;;;;;;4.40;3.97;;;13.60;99.90;;;;;;5011177;28;20187;-68
2023/08/10 02:48:06;;;;;;;5.03;4.60;;;13.60;99.90;;;;;;5010741;28;20269;-69
2023/08/10 02:50:32;;;;;;;5.13;4.77;;;13.60;99.90;;;;;;5018163;28;20545;-68
2023/08/10 02:52:57;;;;;;;5.53;5.03;;;13.60;99.90;;;;;;5010944;28;20185;-68
2023/08/10 02:55:23;;;;;;;5.10;4.70;;;13.50;99.90;;;;;;5011148;28;20675;-69
2023/08/10 02:57:48;;;;;;;5.50;5.07;;;13.40;99.90;;;;;;5010516;28;20734;-69
2023/08/10 03:00:14;;;;;;;5.90;5.40;;;13.40;99.90;;;;;;5009996;28;20198;-68
2023/08/10 03:02:40;;;;;;;5.27;4.87;;;13.30;99.90;;;;;;5010340;28;20221;-68
2023/08/10 03:05:06;;;;;;;5.30;4.80;;;13.30;99.90;;;;;;5009907;28;20469;-68
2023/08/10 03:07:32;;;;;;;5.57;5.03;;;13.30;99.90;;;;;;5009952;28;20195;-68
2023/08/10 03:09:57;;;;;;;5.77;5.37;;;13.30;99.90;;;;;;5009031;28;20171;-68
2023/08/10 03:12:23;;;;;;;7.53;5.73;;;13.30;99.90;;;;;;5011661;28;20187;-69
2023/08/10 03:14:49;;;;;;;5.77;5.27;;;13.40;99.90;;;;;;5010019;28;20668;-69
2023/08/10 03:17:14;;;;;;;5.93;5.43;;;13.40;99.90;;;;;;5008137;28;20230;-69
2023/08/10 03:19:41;;;;;;;5.03;4.70;;;13.30;99.90;;;;;;5010201;28;20211;-68
2023/08/10 03:22:06;;;;;;;5.67;5.17;;;13.20;99.90;;;;;;5010338;28;20179;-68
2023/08/10 03:24:33;;;;;;;6.07;5.27;;;13.20;99.90;;;;;;5009518;28;20501;-68
2023/08/10 03:26:59;;;;;;;5.63;5.20;;;13.20;99.90;;;;;;5009556;28;20289;-68
2023/08/10 03:29:24;;;;;;;6.37;5.87;;;13.20;99.90;;;;;;5009705;28;20874;-68
2023/08/10 03:31:50;;;;;;;5.00;4.60;;;13.20;99.90;;;;;;5010446;28;20673;-68
2023/08/10 03:34:15;;;;;;;6.13;5.63;;;13.20;99.90;;;;;;5010494;28;20228;-68
2023/08/10 03:36:41;;;;;;;6.17;5.57;;;13.20;99.90;;;;;;5011814;28;20186;-68
2023/08/10 03:39:06;;;;;;;5.53;5.03;;;13.10;99.90;;;;;;5009388;28;20687;-69
2023/08/10 03:41:32;;;;;;;5.70;5.20;;;13.10;99.90;;;;;;5009009;28;20179;-68
2023/08/10 03:43:57;;;;;;;5.90;5.50;;;13.10;99.90;;;;;;5010192;28;20175;-68
2023/08/10 03:46:23;;;;;;;6.90;5.87;;;13.20;99.90;;;;;;5010200;28;20266;-69
2023/08/10 03:48:48;;;;;;;5.50;5.07;;;13.20;99.90;;;;;;5021509;28;20194;-68
2023/08/10 03:51:14;;;;;;;5.83;5.33;;;13.20;99.90;;;;;;5013485;28;20187;-68
2023/08/10 03:53:40;;;;;;;7.63;7.00;;;13.20;99.90;;;;;;5014572;28;20499;-68
2023/08/10 03:56:06;;;;;;;12.23;11.03;;;13.20;99.90;;;;;;5015231;28;20660;-68
2023/08/10 03:58:32;;;;;;;7.60;6.83;;;13.10;99.90;;;;;;5022524;28;20460;-68
2023/08/10 04:00:58;;;;;;;7.87;6.50;;;13.10;99.90;;;;;;5022949;28;20488;-69
2023/08/10 04:03:23;;;;;;;6.10;5.60;;;13.10;99.90;;;;;;5014248;28;20430;-68
2023/08/10 04:05:49;;;;;;;6.03;5.53;;;13.10;99.90;;;;;;5014523;28;20258;-68
2023/08/10 04:08:14;;;;;;;6.00;5.47;;;13.10;99.90;;;;;;5021875;28;20214;-68
2023/08/10 04:10:40;;;;;;;6.73;6.07;;;13.10;99.90;;;;;;5023512;28;20616;-69
2023/08/10 04:13:06;;;;;;;6.20;5.60;;;13.10;99.90;;;;;;5019889;28;20262;-69
2023/08/10 04:15:32;;;;;;;6.93;6.33;;;13.00;99.90;;;;;;5013135;28;20261;-69
2023/08/10 04:17:57;;;;;;;6.20;5.80;;;12.90;99.90;;;;;;5015093;28;20203;-68
2023/08/10 04:20:23;;;;;;;7.03;6.40;;;12.90;99.90;;;;;;5014128;28;20421;-68
2023/08/10 04:22:48;;;;;;;7.27;6.17;;;13.00;99.90;;;;;;5016460;28;20229;-68
2023/08/10 04:25:14;;;;;;;6.07;5.60;;;12.90;99.90;;;;;;5018591;28;20217;-68
2023/08/10 04:27:40;;;;;;;6.67;6.00;;;13.00;99.90;;;;;;5014793;28;20297;-68
2023/08/10 04:30:08;;;;;;;6.10;5.60;;;13.00;99.90;;;;;;5016304;28;20264;-68
2023/08/10 04:32:35;;;;;;;6.40;5.90;;;13.00;99.90;;;;;;5015078;28;20668;-68
2023/08/10 04:35:02;;;;;;;7.07;6.37;;;13.10;99.90;;;;;;5014127;28;20445;-69
2023/08/10 04:37:28;;;;;;;6.30;5.80;;;13.10;99.90;;;;;;5014915;28;20468;-68
2023/08/10 04:39:53;;;;;;;6.10;5.60;;;13.10;99.90;;;;;;5018606;28;20555;-68
2023/08/10 04:42:19;;;;;;;6.63;6.10;;;13.20;99.90;;;;;;5018957;28;20178;-69
2023/08/10 04:44:44;;;;;;;7.47;6.77;;;13.10;99.90;;;;;;5026350;28;20183;-69
2023/08/10 04:47:10;;;;;;;6.43;5.93;;;13.10;99.90;;;;;;5012740;28;20206;-68
2023/08/10 04:49:35;;;;;;;6.00;5.50;;;13.10;99.90;;;;;;5014646;28;20183;-69
2023/08/10 04:52:01;;;;;;;6.83;6.23;;;13.10;99.90;;;;;;5014611;28;20736;-68
2023/08/10 04:54:27;;;;;;;6.70;5.23;;;13.10;99.90;;;;;;5013489;28;20192;-69
2023/08/10 04:56:52;;;;;;;5.77;5.27;;;13.20;99.90;;;;;;5012739;28;20461;-69
2023/08/10 04:59:18;;;;;;;7.40;6.80;;;13.40;99.90;;;;;;5010959;28;20838;-69
2023/08/10 05:01:43;;;;;;;8.10;7.10;;;13.50;99.90;;;;;;5009184;28;20179;-68
2023/08/10 05:04:09;;;;;;;6.73;6.13;;;13.70;99.90;;;;;;5013491;28;20527;-68
2023/08/10 05:06:35;;;;;;;7.23;6.57;;;13.80;99.90;;;;;;5013513;28;20211;-69
2023/08/10 05:09:01;;;;;;;6.53;5.93;;;13.90;99.90;;;;;;5014694;28;20262;-69
2023/08/10 05:11:27;;;;;;;7.57;6.00;;;14.00;99.90;;;;;;5012590;28;20496;-69
2023/08/10 05:13:53;;;;;;;6.10;5.60;;;14.20;99.90;;;;;;5013777;28;20434;-69
2023/08/10 05:16:19;;;;;;;6.10;5.50;;;14.30;99.90;;;;;;5013878;28;20441;-69
2023/08/10 05:18:44;;;;;;;7.00;6.07;;;14.50;99.90;;;;;;5015377;28;20229;-69
2023/08/10 05:21:10;;;;;;;5.90;4.80;;;14.60;99.90;;;;;;5015003;28;20657;-69
2023/08/10 05:23:37;;;;;;;5.23;4.83;;;14.80;99.90;;;;;;5016158;28;20278;-69
2023/08/10 05:26:02;;;;;;;5.93;5.43;;;14.90;99.90;;;;;;5012906;28;20214;-69
2023/08/10 05:28:28;;;;;;;5.57;5.17;;;15.00;99.90;;;;;;5033041;22;21099;-68
2023/08/10 05:30:53;;;;;;;6.00;5.50;;;15.10;99.90;;;;;;5013692;28;20685;-69
2023/08/10 05:33:19;;;;;;;6.13;5.53;;;15.30;99.90;;;;;;5013862;28;20542;-69
2023/08/10 05:35:46;;;;;;;5.63;5.10;;;15.40;99.90;;;;;;5028226;28;20559;-69
2023/08/10 05:38:12;;;;;;;5.90;5.30;;;15.60;99.90;;;;;;5000542;28;20215;-68
2023/08/10 05:40:38;;;;;;;7.90;4.97;;;15.80;99.90;;;;;;4993359;28;20529;-69
2023/08/10 05:43:04;;;;;;;5.60;5.20;;;15.90;99.90;;;;;;4997307;28;20538;-68
2023/08/10 05:45:30;;;;;;;6.67;5.97;;;16.10;99.90;;;;;;4991462;28;20180;-69
2023/08/10 05:47:56;;;;;;;5.33;4.83;;;16.20;99.90;;;;;;4993793;28;20541;-69
2023/08/10 05:50:21;;;;;;;6.07;5.53;;;16.20;99.90;;;;;;4988394;28;20180;-68
2023/08/10 05:52:48;;;;;;;6.30;5.70;;;16.20;99.90;;;;;;4994720;28;20176;-68
2023/08/10 05:55:14;;;;;;;6.67;6.10;;;16.20;99.90;;;;;;4993105;28;20250;-69
2023/08/10 05:57:41;;;;;;;6.13;5.63;;;16.30;99.90;;;;;;4990507;28;20475;-68
2023/08/10 06:00:08;;;;;;;6.40;5.83;;;16.70;99.90;;;;;;4992451;28;20477;-68
2023/08/10 06:02:33;;;;;;;6.77;6.20;;;17.00;99.90;;;;;;4993925;28;20501;-68
2023/08/10 06:04:59;;;;;;;6.33;5.83;;;17.20;99.90;;;;;;4991509;28;20439;-69
2023/08/10 06:07:24;;;;;;;5.90;4.90;;;17.30;99.90;;;;;;4992985;28;20203;-68
2023/08/10 06:09:50;;;;;;;7.40;5.87;;;17.40;99.90;;;;;;4990194;28;20187;-68
2023/08/10 06:12:17;;;;;;;6.47;5.93;;;17.50;99.90;;;;;;4990112;28;20596;-69
2023/08/10 06:14:44;;;;;;;6.23;5.83;;;17.60;99.90;;;;;;4990344;28;20871;-68
2023/08/10 06:17:09;;;;;;;7.00;6.33;;;17.60;99.90;;;;;;4995555;28;20458;-68
2023/08/10 06:19:35;;;;;;;6.53;5.93;;;17.50;99.90;;;;;;4990635;28;20961;-68
2023/08/10 06:22:00;;;;;;;6.90;5.93;;;17.50;99.90;;;;;;4991194;28;20655;-70
2023/08/10 06:24:26;;;;;;;6.00;5.57;;;17.30;99.90;;;;;;4987532;28;20184;-69
2023/08/10 06:26:52;;;;;;;7.10;6.50;;;17.40;99.90;;;;;;4993988;28;20661;-70
2023/08/10 06:29:17;;;;;;;7.40;6.70;;;17.40;99.90;;;;;;4999727;28;20251;-70
2023/08/10 06:31:43;;;;;;;6.90;6.37;;;17.40;99.90;;;;;;4993815;28;20179;-70
2023/08/10 06:34:09;;;;;;;9.07;8.10;;;17.60;99.90;;;;;;4989995;28;20687;-71
2023/08/10 06:36:34;;;;;;;7.63;7.03;;;17.40;99.90;;;;;;4993277;28;20255;-69
2023/08/10 06:39:00;;;;;;;7.17;6.60;;;17.40;99.90;;;;;;4991168;28;20219;-68
2023/08/10 06:41:26;;;;;;;7.50;6.90;;;17.30;99.90;;;;;;4990822;28;20179;-69
2023/08/10 06:43:52;;;;;;;7.57;6.77;;;17.30;99.90;;;;;;4998875;28;20442;-68
2023/08/10 06:46:17;;;;;;;7.93;7.33;;;17.40;99.90;;;;;;4991999;28;20190;-68
2023/08/10 06:48:43;;;;;;;7.83;6.70;;;17.40;99.90;;;;;;4999043;28;20207;-68
2023/08/10 06:51:08;;;;;;;7.80;7.20;;;17.50;99.90;;;;;;4998463;28;20234;-68
2023/08/10 06:53:34;;;;;;;7.70;7.00;;;17.60;99.90;;;;;;4998183;28;20215;-68
2023/08/10 06:55:59;;;;;;;7.50;6.90;;;17.50;99.90;;;;;;4990430;28;20772;-69
2023/08/10 06:58:25;;;;;;;7.80;7.17;;;17.50;99.90;;;;;;4989941;28;20207;-68
2023/08/10 07:00:51;;;;;;;8.20;7.50;;;17.70;99.90;;;;;;4988597;28;20207;-68
2023/08/10 07:03:17;;;;;;;7.37;6.73;;;17.90;99.90;;;;;;4988610;28;20186;-68
2023/08/10 07:05:43;;;;;;;7.67;6.80;;;18.00;99.90;;;;;;5001407;28;20629;-69
2023/08/10 07:08:09;;;;;;;7.63;7.03;;;18.00;99.90;;;;;;4988118;28;20195;-68
2023/08/10 07:10:36;;;;;;;8.17;7.00;;;17.70;99.90;;;;;;4989919;28;20828;-68
2023/08/10 07:13:02;;;;;;;6.50;6.00;;;18.00;99.90;;;;;;4998216;28;20449;-69
2023/08/10 07:15:27;;;;;;;10.50;6.80;;;18.20;99.90;;;;;;4992135;28;20434;-69
2023/08/10 07:17:53;;;;;;;12.80;8.10;;;18.30;99.90;;;;;;4992736;28;20211;-69
2023/08/10 07:20:18;;;;;;;8.40;7.10;;;18.50;99.90;;;;;;4989356;28;20664;-68
2023/08/10 07:22:45;;;;;;;8.50;7.80;;;18.70;99.90;;;;;;4991708;28;20551;-68
2023/08/10 07:25:11;;;;;;;7.00;6.43;;;18.80;99.90;;;;;;4998390;28;20553;-69
2023/08/10 07:27:37;;;;;;;7.70;7.07;;;19.10;99.90;;;;;;5000284;28;20528;-70
2023/08/10 07:30:03;;;;;;;8.13;7.30;;;19.10;99.90;;;;;;4992910;28;20442;-69
2023/08/10 07:32:29;;;;;;;10.00;7.83;;;19.10;99.90;;;;;;4990507;28;20270;-69
2023/08/10 07:34:54;;;;;;;6.33;5.83;;;19.20;99.90;;;;;;4997561;28;20534;-69
2023/08/10 07:37:20;;;;;;;8.60;8.00;;;19.10;99.90;;;;;;4987121;28;20714;-69
2023/08/10 07:39:47;;;;;;;7.57;6.87;;;19.00;99.90;;;;;;4987629;28;20619;-69
2023/08/10 07:42:12;;;;;;;7.63;6.93;;;19.10;99.90;;;;;;4997005;28;20654;-69
2023/08/10 07:44:38;;;;;;;7.33;6.77;;;19.00;99.90;;;;;;4999462;28;20433;-69
2023/08/10 07:47:04;;;;;;;7.80;7.10;;;19.30;99.90;;;;;;4998713;28;20230;-69
2023/08/10 07:49:29;;;;;;;8.50;7.23;;;19.40;99.90;;;;;;4999214;28;20939;-69
2023/08/10 07:51:55;;;;;;;5.97;5.57;;;19.30;99.90;;;;;;4988406;28;20183;-69
2023/08/10 07:54:20;;;;;;;6.40;5.90;;;19.40;99.90;;;;;;4989515;28;20192;-69
2023/08/10 07:56:46;;;;;;;7.27;6.53;;;19.80;99.90;;;;;;4997142;28;20183;-69
2023/08/10 07:59:12;;;;;;;6.87;6.20;;;20.10;99.90;;;;;;4990686;28;20234;-70
2023/08/10 08:01:38;;;;;;;6.90;6.30;;;20.30;99.90;;;;;;4992457;28;20184;-69
2023/08/10 08:04:04;;;;;;;6.60;6.10;;;20.40;99.90;;;;;;4991017;28;20231;-69
2023/08/10 08:06:30;;;;;;;6.40;5.73;;;20.50;99.90;;;;;;4999496;28;20434;-69
2023/08/10 08:08:55;;;;;;;6.87;6.37;;;20.70;99.90;;;;;;4991897;28;20471;-69
2023/08/10 08:11:21;;;;;;;5.73;5.37;;;20.40;99.90;;;;;;4997223;28;20188;-69
2023/08/10 08:13:46;;;;;;;6.30;5.80;;;20.80;99.90;;;;;;5001467;28;20183;-70
2023/08/10 08:16:12;;;;;;;5.83;5.37;;;21.00;99.90;;;;;;4989523;28;20576;-69
2023/08/10 08:18:49;;;;;;;7.60;6.27;;;21.20;99.90;;;;;;4992596;28;20239;-70
2023/08/10 08:21:17;;;;;;;6.10;5.60;;;21.60;99.90;;;;;;4995955;28;20171;-67
2023/08/10 08:23:44;;;;;;;5.90;5.40;;;22.00;99.90;;;;;;5000083;28;20439;-68
2023/08/10 08:26:11;;;;;;;6.47;6.00;;;22.30;99.90;;;;;;5001660;28;20434;-70
2023/08/10 08:28:36;;;;;;;5.70;5.13;;;22.30;99.90;;;;;;4988286;28;20990;-69
2023/08/10 08:31:02;;;;;;;6.10;5.50;;;22.30;99.90;;;;;;4989259;28;20453;-69
2023/08/10 08:33:29;;;;;;;5.57;5.17;;;22.50;99.90;;;;;;4990410;28;20266;-69
2023/08/10 08:35:54;;;;;;;5.60;5.17;;;22.70;99.90;;;;;;5005011;28;20962;-69
2023/08/10 08:38:20;;;;;;;5.50;5.00;;;22.70;99.90;;;;;;4990999;28;20462;-69
2023/08/10 08:40:49;;;;;;;5.90;5.40;;;22.80;99.90;;;;;;4995942;28;20179;-70
2023/08/10 08:43:16;;;;;;;5.97;5.50;;;22.90;99.90;;;;;;5003291;28;20237;-69
2023/08/10 08:45:42;;;;;;;5.93;5.30;;;22.40;99.90;;;;;;5001076;28;20435;-70
2023/08/10 08:48:07;;;;;;;5.73;5.33;;;22.30;99.90;;;;;;4994156;28;20461;-70
2023/08/10 08:50:36;;;;;;;6.40;5.97;;;22.80;99.90;;;;;;4991447;28;20466;-69
2023/08/10 08:53:04;;;;;;;4.73;4.40;;;23.30;99.90;;;;;;4991565;28;20270;-70
2023/08/10 08:55:31;;;;;;;7.67;5.63;;;23.60;99.90;;;;;;4991747;28;20430;-70
2023/08/10 08:57:56;;;;;;;5.60;5.20;;;23.90;99.90;;;;;;4995161;28;20454;-70
2023/08/10 09:00:22;;;;;;;5.97;5.57;;;24.30;99.90;;;;;;4994206;28;20497;-70
2023/08/10 09:02:49;;;;;;;5.37;4.97;;;24.40;99.90;;;;;;4994880;28;20696;-69
2023/08/10 09:05:15;;;;;;;4.83;4.40;;;24.30;99.90;;;;;;4999780;28;20813;-70
2023/08/10 09:07:40;;;;;;;4.83;4.50;;;24.30;99.90;;;;;;4994815;28;20450;-70
2023/08/10 09:10:06;;;;;;;5.77;5.17;;;24.30;99.90;;;;;;4990341;28;20187;-70
2023/08/10 09:12:37;;;;;;;4.70;4.30;;;24.20;99.90;;;;;;4992470;28;20180;-70
2023/08/10 09:15:11;;;;;;;5.17;4.60;;;24.40;99.90;;;;;;4997371;28;20976;-70
2023/08/10 09:17:54;;;;;;;3.90;3.60;;;24.70;99.90;;;;;;4991570;28;20493;-71
2023/08/10 09:20:23;;;;;;;5.60;5.20;;;25.00;99.90;;;;;;4987502;28;21015;-70
2023/08/10 09:22:51;;;;;;;5.27;4.87;;;25.10;99.90;;;;;;4991380;28;20438;-70
2023/08/10 09:25:16;;;;;;;4.83;4.43;;;25.30;99.90;;;;;;4992112;28;20466;-70
2023/08/10 09:27:42;;;;;;;5.00;4.60;;;25.70;99.90;;;;;;5003125;28;20564;-70
2023/08/10 09:30:08;;;;;;;4.23;3.93;;;26.50;99.90;;;;;;4997744;28;20180;-70
2023/08/10 09:32:34;;;;;;;4.60;4.30;;;27.40;99.90;;;;;;4993859;28;20550;-70
2023/08/10 09:35:00;;;;;;;4.20;3.90;;;28.20;99.90;;;;;;4994012;28;20954;-70
2023/08/10 09:37:26;;;;;;;4.80;4.50;;;28.60;99.90;;;;;;4993060;28;20466;-70
2023/08/10 09:40:06;;;;;;;4.20;3.80;;;28.50;99.90;;;;;;4999306;28;20505;-70
2023/08/10 09:42:32;;;;;;;5.00;4.50;;;28.80;99.90;;;;;;5008782;28;20183;-70
2023/08/10 09:45:00;;;;;;;3.93;3.63;;;29.20;99.90;;;;;;4989573;28;20978;-70
2023/08/10 09:47:25;;;;;;;5.00;4.60;;;29.90;98.50;;;;;;4995288;28;20471;-69
2023/08/10 09:50:01;;;;;;;3.90;3.60;;;29.80;97.30;;;;;;4996852;28;20473;-69
2023/08/10 09:52:28;;;;;;;3.97;3.67;;;29.90;96.60;;;;;;4995226;28;20175;-69
2023/08/10 09:54:55;;;;;;;4.43;4.13;;;30.00;95.50;;;;;;4996520;28;20509;-70
2023/08/10 09:57:22;;;;;;;4.23;3.73;;;30.20;94.60;;;;;;4991783;28;20473;-70
2023/08/10 09:59:48;;;;;;;4.40;4.00;;;30.60;93.30;;;;;;4995131;28;20466;-70
2023/08/10 10:02:15;;;;;;;4.80;4.40;;;31.50;90.60;;;;;;4999002;28;20474;-70
2023/08/10 10:04:42;;;;;;;4.50;3.67;;;31.60;88.20;;;;;;4992388;28;20470;-70
2023/08/10 10:07:09;;;;;;;4.60;4.30;;;32.10;85.70;;;;;;4992784;28;20465;-69
2023/08/10 10:09:37;;;;;;;4.37;4.00;;;33.20;78.80;;;;;;4989233;28;20489;-70
2023/08/10 10:12:06;;;;;;;3.17;2.97;;;33.00;76.10;;;;;;4989588;28;20450;-68
2023/08/10 10:14:33;;;;;;;4.80;4.40;;;33.50;72.90;;;;;;4992747;28;20517;-69
2023/08/10 10:17:01;;;;;;;3.40;3.20;;;33.80;69.90;;;;;;4995378;28;20470;-69
2023/08/10 10:19:27;;;;;;;27.10;25.00;;;34.00;69.50;;;;;;5000378;28;20470;-69
2023/08/10 10:21:53;;;;;;;5.10;4.70;;;34.90;67.10;;;;;;4988796;28;20446;-71
2023/08/10 10:24:18;;;;;;;6.00;5.40;;;35.60;61.20;;;;;;4998059;28;20433;-69
2023/08/10 10:27:08;;;;;;;13.50;12.33;;;35.20;59.80;;;;;;4991553;28;20206;-69
2023/08/10 10:29:40;;;;;;;9.57;8.87;;;34.90;59.40;;;;;;4990927;28;20264;-69
2023/08/10 10:32:14;;;;;;;16.50;15.20;;;35.50;56.90;;;;;;5002854;28;20436;-68
2023/08/10 10:34:40;;;;;;;4.20;3.80;;;36.70;54.30;;;;;;4992486;28;20450;-68
2023/08/10 10:37:16;;;;;;;14.73;13.63;;;36.30;51.60;;;;;;4991176;28;20458;-68
2023/08/10 10:39:51;;;;;;;4.70;4.30;;;36.70;50.80;;;;;;4986446;28;20472;-70
2023/08/10 10:42:18;;;;;;;4.33;4.03;;;37.60;48.50;;;;;;4993298;28;20438;-68
2023/08/10 10:45:14;;;;;;;4.50;4.20;;;35.90;47.30;;;;;;4991726;28;20449;-68
2023/08/10 10:47:49;;;;;;;4.43;4.13;;;34.50;48.80;;;;;;4992425;28;20859;-68
2023/08/10 10:50:28;;;;;;;4.43;4.13;;;35.70;48.10;;;;;;4991745;28;20806;-69
2023/08/10 10:53:02;;;;;;;4.13;3.83;;;36.90;46.00;;;;;;4994122;28;20454;-69
2023/08/10 10:55:37;;;;;;;3.70;3.40;;;37.50;44.30;;;;;;4982788;28;20442;-69
2023/08/10 10:58:05;;;;;;;3.43;3.20;;;38.10;44.50;;;;;;4986958;28;20485;-69
2023/08/10 11:00:32;;;;;;;3.40;3.10;;;38.30;43.70;;;;;;4987714;28;20450;-68
2023/08/10 11:02:58;;;;;;;5.57;5.20;;;38.80;42.80;;;;;;4988689;28;20942;-69
2023/08/10 11:05:24;;;;;;;3.67;3.40;;;39.40;42.40;;;;;;4998127;28;20450;-69
2023/08/10 11:07:51;;;;;;;3.10;2.90;;;39.80;40.70;;;;;;4992405;28;20457;-69
2023/08/10 11:10:19;;;;;;;4.50;4.20;;;39.90;39.70;;;;;;4994785;28;20190;-69
2023/08/10 11:12:48;;;;;;;5.40;5.00;;;39.60;39.60;;;;;;4988984;28;20844;-68
2023/08/10 11:15:14;;;;;;;3.77;3.47;;;38.90;40.00;;;;;;4994221;28;20939;-68
2023/08/10 11:17:43;;;;;;;3.80;3.60;;;38.30;40.50;;;;;;4998553;28;20553;-68
2023/08/10 11:20:12;;;;;;;4.43;4.13;;;38.60;40.50;;;;;;4992843;28;20987;-69
2023/08/10 11:22:42;;;;;;;4.20;3.97;;;38.90;40.90;;;;;;4987708;28;20446;-69
2023/08/10 11:25:13;;;;;;;3.33;3.13;;;39.60;39.70;;;;;;4989938;28;20446;-68
2023/08/10 11:27:48;;;;;;;3.97;3.47;;;39.60;39.20;;;;;;4992528;28;20470;-67
2023/08/10 11:30:18;;;;;;;3.47;3.17;;;39.60;38.90;;;;;;4990720;28;20464;-68
2023/08/10 11:32:49;;;;;;;4.37;3.50;;;40.00;38.10;;;;;;4988274;28;20434;-67
2023/08/10 11:35:18;;;;;;;4.43;4.03;;;40.70;37.80;;;;;;4989862;28;20803;-67
2023/08/10 11:37:44;;;;;;;3.23;2.93;;;40.60;37.50;;;;;;4988553;28;20474;-68
2023/08/10 11:40:12;;;;;;;3.37;3.07;;;40.10;37.00;;;;;;4992636;28;20497;-68
2023/08/10 11:42:39;;;;;;;7.50;7.00;;;39.20;37.60;;;;;;4993273;28;20453;-68
2023/08/10 11:45:16;;;;;;;4.70;4.37;;;38.70;38.20;;;;;;4988374;28;20443;-68
2023/08/10 11:47:47;;;;;;;3.87;3.57;;;36.80;38.80;;;;;;4986789;28;20466;-68
2023/08/10 11:50:17;;;;;;;4.97;4.57;;;36.80;38.80;;;;;;4984748;28;20450;-67
2023/08/10 11:52:43;;;;;;;4.70;3.77;;;36.90;38.30;;;;;;4998088;28;20529;-68
2023/08/10 11:55:13;;;;;;;3.37;3.17;;;38.00;38.30;;;;;;4997116;28;20435;-68
2023/08/10 11:57:53;;;;;;;3.53;3.33;;;39.20;36.30;;;;;;4996610;28;20557;-68
2023/08/10 12:00:23;;;;;;;3.77;3.47;;;40.00;35.50;;;;;;4990972;28;20472;-68
2023/08/10 12:03:11;;;;;;;3.47;3.20;;;40.90;34.40;;;;;;4988756;28;20440;-67
2023/08/10 12:05:37;;;;;;;3.90;3.70;;;40.10;33.40;;;;;;4987505;28;20438;-68
2023/08/10 12:08:08;;;;;;;4.33;4.10;;;39.50;33.60;;;;;;4987058;28;20519;-68
2023/08/10 12:10:39;;;;;;;4.00;3.70;;;38.70;34.10;;;;;;4991837;28;20179;-68
2023/08/10 12:13:06;;;;;;;3.40;3.20;;;39.10;34.70;;;;;;4995024;28;21007;-68
2023/08/10 12:15:32;;;;;;;3.60;3.37;;;40.20;34.90;;;;;;5002185;28;20453;-68
2023/08/10 12:18:00;;;;;;;3.33;3.10;;;41.70;33.60;;;;;;4993753;28;20461;-68
2023/08/10 12:20:26;;;;;;;3.70;3.40;;;42.50;32.40;;;;;;4995784;28;21018;-68
2023/08/10 12:22:53;;;;;;;3.50;3.30;;;41.60;32.60;;;;;;4992425;28;20812;-68
2023/08/10 12:25:19;;;;;;;3.80;3.60;;;41.30;33.00;;;;;;4994323;28;20476;-68
2023/08/10 12:27:45;;;;;;;3.90;3.70;;;41.90;32.50;;;;;;4991108;28;20971;-68
2023/08/10 12:30:10;;;;;;;3.57;3.27;;;42.20;32.60;;;;;;4991871;28;20457;-68
2023/08/10 12:32:36;;;;;;;3.60;3.30;;;42.80;31.40;;;;;;4992367;28;20180;-69
2023/08/10 12:35:02;;;;;;;6.27;5.87;;;42.40;31.60;;;;;;4997783;28;20368;-68
2023/08/10 12:37:29;;;;;;;3.83;3.60;;;40.70;32.70;;;;;;4993575;28;20234;-68
2023/08/10 12:39:56;;;;;;;5.40;3.70;;;40.40;32.10;;;;;;4997127;28;20573;-68
2023/08/10 12:42:21;;;;;;;4.27;3.97;;;41.80;31.70;;;;;;4993365;28;20442;-68
2023/08/10 12:44:47;;;;;;;3.40;3.10;;;42.80;31.30;;;;;;4991595;28;20449;-68